Time;durP1;ratioP1;P1;durP2;ratioP2;P2;SDS_P1;SDS_P2;PMS_P1;PMS_P2;Temp;Humidity;BMP_temperature;BMP_pressure;BME280_temperature;BME280_humidity;BME280_pressure;Samples;Min_cycle;Max_cycle;Signal;HPM_P1;HPM_P2
2022/11/22 00:02:16;;;;;;;6.40;2.95;;;6.80;99.90;;;;;;4955261;29;20038;-44
2022/11/22 00:04:42;;;;;;;6.65;3.88;;;6.80;99.90;;;;;;4955807;28;20028;-45
2022/11/22 00:07:08;;;;;;;9.32;2.72;;;6.70;99.90;;;;;;4955850;29;20546;-42
2022/11/22 00:09:33;;;;;;;12.20;2.40;;;6.80;99.90;;;;;;4955463;28;20035;-41
2022/11/22 00:11:59;;;;;;;8.30;2.60;;;6.80;99.90;;;;;;4954715;28;20106;-43
2022/11/22 00:14:24;;;;;;;8.25;2.30;;;6.70;99.90;;;;;;4955500;28;20167;-43
2022/11/22 00:16:50;;;;;;;6.18;2.35;;;6.70;99.90;;;;;;4955745;28;20027;-47
2022/11/22 00:19:16;;;;;;;6.72;2.42;;;6.70;99.90;;;;;;4955674;28;20463;-46
2022/11/22 00:21:41;;;;;;;7.20;2.45;;;6.70;99.90;;;;;;4956288;28;20032;-45
2022/11/22 00:24:07;;;;;;;8.02;2.50;;;6.80;99.90;;;;;;4954910;28;20031;-46
2022/11/22 00:26:33;;;;;;;9.60;2.75;;;6.70;99.90;;;;;;4955084;28;20510;-42
2022/11/22 00:28:58;;;;;;;6.43;2.53;;;6.80;99.90;;;;;;4955181;29;20046;-42
2022/11/22 00:31:24;;;;;;;3.95;2.15;;;6.80;99.90;;;;;;4955280;28;20586;-43
2022/11/22 00:33:49;;;;;;;5.57;3.22;;;6.70;99.90;;;;;;4954610;28;20111;-47
2022/11/22 00:36:16;;;;;;;5.25;2.47;;;6.70;99.90;;;;;;4955540;28;20038;-44
2022/11/22 00:38:42;;;;;;;8.40;2.92;;;6.80;99.90;;;;;;4955447;28;20491;-43
2022/11/22 00:41:08;;;;;;;5.00;3.08;;;6.80;99.90;;;;;;4955621;28;20023;-44
2022/11/22 00:43:33;;;;;;;7.40;3.35;;;6.80;99.90;;;;;;4955452;28;20020;-43
2022/11/22 00:45:59;;;;;;;8.40;2.72;;;6.90;99.90;;;;;;4953618;28;20035;-44
2022/11/22 00:48:25;;;;;;;4.28;2.72;;;6.90;99.90;;;;;;4955468;28;20035;-42
2022/11/22 00:50:51;;;;;;;6.05;2.97;;;6.90;99.90;;;;;;4955342;29;20024;-43
2022/11/22 00:53:16;;;;;;;6.90;3.25;;;6.90;99.90;;;;;;4955181;28;20083;-42
2022/11/22 00:55:43;;;;;;;8.25;3.10;;;6.90;99.90;;;;;;4954832;28;20091;-47
2022/11/22 00:58:09;;;;;;;7.25;3.13;;;6.90;99.90;;;;;;4954625;28;20038;-46
2022/11/22 01:00:34;;;;;;;8.57;2.70;;;6.90;99.90;;;;;;4954818;28;20035;-44
2022/11/22 01:02:59;;;;;;;7.20;3.85;;;6.90;99.90;;;;;;4954177;28;20066;-45
2022/11/22 01:05:25;;;;;;;5.88;3.30;;;7.00;99.90;;;;;;4955014;28;20154;-47
2022/11/22 01:07:50;;;;;;;9.07;3.00;;;6.90;99.90;;;;;;4955189;29;20023;-44
2022/11/22 01:10:16;;;;;;;5.90;3.00;;;6.90;99.90;;;;;;4955287;28;20031;-40
2022/11/22 01:12:42;;;;;;;10.57;3.72;;;6.90;99.90;;;;;;4954414;28;20020;-44
2022/11/22 01:15:07;;;;;;;4.82;2.63;;;6.90;99.90;;;;;;4969948;28;20027;-42
2022/11/22 01:17:33;;;;;;;4.35;2.78;;;7.00;99.90;;;;;;4955127;29;20023;-43
2022/11/22 01:19:58;;;;;;;3.72;3.20;;;7.00;99.90;;;;;;4954842;29;20031;-46
2022/11/22 01:22:24;;;;;;;6.95;2.70;;;7.00;99.90;;;;;;4954621;28;20034;-43
2022/11/22 01:24:49;;;;;;;8.85;3.13;;;7.00;99.90;;;;;;4954958;28;20446;-43
2022/11/22 01:27:15;;;;;;;9.52;3.42;;;7.00;99.90;;;;;;4954389;28;20082;-46
2022/11/22 01:29:41;;;;;;;4.20;2.55;;;7.00;99.90;;;;;;4954310;28;20027;-48
2022/11/22 01:32:06;;;;;;;8.35;3.35;;;7.00;99.90;;;;;;4953481;28;20082;-49
2022/11/22 01:34:32;;;;;;;4.55;2.90;;;7.00;99.90;;;;;;4953929;28;20399;-45
2022/11/22 01:36:57;;;;;;;5.25;3.00;;;7.00;99.90;;;;;;4953877;29;20039;-44
2022/11/22 01:39:23;;;;;;;6.68;3.55;;;7.00;99.90;;;;;;4954077;29;20114;-47
2022/11/22 01:41:48;;;;;;;6.45;3.53;;;7.10;99.90;;;;;;4954059;28;20027;-44
2022/11/22 01:44:32;;;;;;;8.75;3.78;;;7.10;99.90;;;;;;4954255;29;20027;-44
2022/11/22 01:47:14;;;;;;;13.02;3.55;;;7.20;99.90;;;;;;4952201;29;20035;-47
2022/11/22 01:49:44;;;;;;;6.45;3.97;;;7.10;99.90;;;;;;4953975;28;20490;-44
2022/11/22 01:52:17;;;;;;;5.90;4.25;;;7.10;99.90;;;;;;4953192;28;20023;-44
2022/11/22 01:54:46;;;;;;;7.93;4.15;;;7.10;99.90;;;;;;4953795;28;20502;-43
2022/11/22 01:57:18;;;;;;;5.30;4.30;;;7.10;99.90;;;;;;4953592;28;20122;-45
2022/11/22 01:59:50;;;;;;;16.85;5.57;;;7.00;99.90;;;;;;4953783;28;20392;-42
2022/11/22 02:02:16;;;;;;;9.45;4.35;;;7.10;99.90;;;;;;4953469;28;20545;-42
2022/11/22 02:04:43;;;;;;;7.50;5.10;;;7.00;99.90;;;;;;4953320;28;20059;-45
2022/11/22 02:07:20;;;;;;;7.45;4.60;;;7.00;99.90;;;;;;4954363;28;20031;-43
2022/11/22 02:09:48;;;;;;;13.23;5.43;;;7.00;99.90;;;;;;4954077;28;20341;-46
2022/11/22 02:12:16;;;;;;;13.77;5.43;;;7.00;99.90;;;;;;4952826;28;20051;-43
2022/11/22 02:14:42;;;;;;;8.52;5.20;;;7.00;99.90;;;;;;4953062;28;20090;-43
2022/11/22 02:17:08;;;;;;;7.43;5.25;;;7.00;99.90;;;;;;4953459;28;20101;-43
2022/11/22 02:19:46;;;;;;;13.40;6.38;;;7.00;99.90;;;;;;4953402;28;20071;-43
2022/11/22 02:22:29;;;;;;;10.93;5.65;;;7.00;99.90;;;;;;4953305;28;20027;-45
2022/11/22 02:25:11;;;;;;;10.48;5.47;;;7.00;99.90;;;;;;4953227;28;20035;-43
2022/11/22 02:27:37;;;;;;;5.70;5.10;;;7.10;99.90;;;;;;4953676;28;20058;-43
2022/11/22 02:30:03;;;;;;;6.93;5.03;;;7.10;99.90;;;;;;4953431;29;20038;-45
2022/11/22 02:32:29;;;;;;;10.00;6.18;;;7.00;99.90;;;;;;4953853;28;20024;-45
2022/11/22 02:34:54;;;;;;;10.27;4.85;;;7.00;99.90;;;;;;4953504;28;20380;-45
2022/11/22 02:37:25;;;;;;;9.30;5.93;;;7.10;99.90;;;;;;4953479;28;20046;-42
2022/11/22 02:39:55;;;;;;;12.32;7.28;;;7.10;99.90;;;;;;4953830;28;20059;-42
2022/11/22 02:42:22;;;;;;;10.88;6.35;;;7.10;99.90;;;;;;4935891;29;20400;-43
2022/11/22 02:44:47;;;;;;;11.98;6.13;;;7.10;99.90;;;;;;4953942;28;20114;-42
2022/11/22 02:47:13;;;;;;;15.90;7.65;;;7.10;99.90;;;;;;4951183;28;20090;-43
2022/11/22 02:49:39;;;;;;;10.57;7.05;;;7.10;99.90;;;;;;4953808;28;20031;-42
2022/11/22 02:52:04;;;;;;;14.45;7.10;;;7.10;99.90;;;;;;4953251;29;20497;-45
2022/11/22 02:54:30;;;;;;;12.90;6.95;;;7.10;99.90;;;;;;4952748;29;20388;-47
2022/11/22 02:56:55;;;;;;;15.77;6.65;;;7.20;99.90;;;;;;4953295;28;20082;-45
2022/11/22 02:59:21;;;;;;;17.00;7.28;;;7.10;99.90;;;;;;4953419;29;20027;-42
2022/11/22 03:01:47;;;;;;;11.77;6.55;;;7.00;99.90;;;;;;4953567;28;20031;-42
2022/11/22 03:04:23;;;;;;;8.82;6.30;;;7.10;99.90;;;;;;4953429;28;20027;-44
2022/11/22 03:06:58;;;;;;;11.98;6.05;;;7.00;99.90;;;;;;4953370;28;20031;-43
2022/11/22 03:09:25;;;;;;;9.82;6.90;;;7.10;99.90;;;;;;4953734;28;20513;-45
2022/11/22 03:11:51;;;;;;;8.05;6.63;;;7.10;99.90;;;;;;4953143;28;20046;-44
2022/11/22 03:14:17;;;;;;;11.93;6.97;;;7.10;99.90;;;;;;4952903;28;20390;-45
2022/11/22 03:16:43;;;;;;;9.77;6.32;;;7.10;99.90;;;;;;4953125;28;20114;-44
2022/11/22 03:19:09;;;;;;;12.07;6.85;;;7.10;99.90;;;;;;4953110;28;20054;-47
2022/11/22 03:21:36;;;;;;;12.07;6.47;;;7.10;99.90;;;;;;4953176;28;20027;-47
2022/11/22 03:24:02;;;;;;;11.38;6.47;;;7.10;99.90;;;;;;4952653;28;20024;-43
2022/11/22 03:26:27;;;;;;;9.57;6.72;;;7.10;99.90;;;;;;4955872;28;20447;-41
2022/11/22 03:28:53;;;;;;;9.90;6.47;;;7.10;99.90;;;;;;4956745;28;20560;-43
2022/11/22 03:31:18;;;;;;;13.82;6.63;;;7.10;99.90;;;;;;4956741;29;20038;-41
2022/11/22 03:33:44;;;;;;;10.55;6.75;;;7.20;99.90;;;;;;4955835;29;20410;-43
2022/11/22 03:36:09;;;;;;;9.63;5.95;;;7.20;99.90;;;;;;4956544;28;20042;-46
2022/11/22 03:38:35;;;;;;;8.60;6.70;;;7.20;99.90;;;;;;4956625;29;20464;-45
2022/11/22 03:41:01;;;;;;;8.95;6.38;;;7.20;99.90;;;;;;4956546;29;20027;-43
2022/11/22 03:43:26;;;;;;;8.52;6.60;;;7.20;99.90;;;;;;4955697;29;20031;-44
2022/11/22 03:45:52;;;;;;;10.02;6.35;;;7.20;99.90;;;;;;4954530;28;20519;-48
2022/11/22 03:48:18;;;;;;;13.15;6.47;;;7.30;99.90;;;;;;4956366;29;20094;-43
2022/11/22 03:50:44;;;;;;;12.25;6.55;;;7.20;99.90;;;;;;4956351;28;20428;-43
2022/11/22 03:53:10;;;;;;;15.40;7.55;;;7.20;99.90;;;;;;4955444;28;20109;-47
2022/11/22 03:55:36;;;;;;;10.48;6.75;;;7.20;99.90;;;;;;4956056;28;20049;-42
2022/11/22 03:58:01;;;;;;;12.45;6.60;;;7.20;99.90;;;;;;4956077;28;20484;-46
2022/11/22 04:00:27;;;;;;;10.32;6.00;;;7.20;99.90;;;;;;4956366;28;20459;-44
2022/11/22 04:02:52;;;;;;;12.00;6.18;;;7.20;99.90;;;;;;4955416;28;20038;-45
2022/11/22 04:05:18;;;;;;;10.40;6.07;;;7.20;99.90;;;;;;4955911;28;20078;-46
2022/11/22 04:07:43;;;;;;;8.88;6.20;;;7.10;99.90;;;;;;4955854;29;20042;-44
2022/11/22 04:10:09;;;;;;;11.68;5.93;;;7.10;99.90;;;;;;4956093;28;20514;-46
2022/11/22 04:12:35;;;;;;;12.30;5.75;;;7.10;99.90;;;;;;4955218;29;20377;-44
2022/11/22 04:15:06;;;;;;;13.00;7.53;;;7.00;99.90;;;;;;4955813;28;20023;-42
2022/11/22 04:17:39;;;;;;;13.30;5.82;;;7.00;99.90;;;;;;4955870;28;20118;-44
2022/11/22 04:23:00;;;;;;;10.48;6.15;;;6.90;99.90;;;;;;4955423;28;20038;-48
2022/11/22 04:25:28;;;;;;;13.30;6.38;;;6.90;99.90;;;;;;4955519;28;20074;-43
2022/11/22 04:27:54;;;;;;;9.07;5.85;;;6.80;99.90;;;;;;4955642;28;20041;-42
2022/11/22 04:30:20;;;;;;;12.98;7.28;;;6.80;99.90;;;;;;4956023;28;20492;-42
2022/11/22 04:32:46;;;;;;;14.93;7.03;;;6.80;99.90;;;;;;4954733;28;20034;-41
2022/11/22 04:35:14;;;;;;;13.23;6.88;;;6.70;99.90;;;;;;4955505;28;20547;-46
2022/11/22 04:37:40;;;;;;;13.70;6.68;;;6.70;99.90;;;;;;4955194;28;20019;-44
2022/11/22 04:40:06;;;;;;;13.82;6.70;;;6.70;99.90;;;;;;4955482;28;20093;-45
2022/11/22 04:45:16;;;;;;;12.70;7.13;;;6.70;99.90;;;;;;4953263;28;20633;-42
2022/11/22 04:47:59;;;;;;;11.40;6.05;;;6.70;99.90;;;;;;4955550;28;20023;-44
2022/11/22 04:53:12;;;;;;;13.57;6.80;;;6.70;99.90;;;;;;4954782;29;20090;-43
2022/11/22 04:55:38;;;;;;;13.88;6.57;;;6.70;99.90;;;;;;4955113;28;20399;-45
2022/11/22 04:58:13;;;;;;;12.15;6.13;;;6.60;99.90;;;;;;4955321;28;20034;-44
2022/11/22 05:00:39;;;;;;;19.67;6.75;;;6.70;99.90;;;;;;4955244;28;20035;-47
2022/11/22 05:03:05;;;;;;;18.10;5.50;;;6.70;99.90;;;;;;4954921;28;20522;-43
2022/11/22 05:05:35;;;;;;;11.90;5.68;;;6.70;99.90;;;;;;4956372;28;20558;-41
2022/11/22 05:08:00;;;;;;;17.15;6.57;;;6.70;99.90;;;;;;4956647;28;20027;-45
2022/11/22 05:10:26;;;;;;;20.98;7.25;;;6.70;99.90;;;;;;4955260;29;20364;-43
2022/11/22 05:12:51;;;;;;;14.90;5.95;;;6.60;99.90;;;;;;4954278;29;20475;-45
2022/11/22 05:15:17;;;;;;;17.08;7.07;;;6.60;99.90;;;;;;4954869;28;20067;-43
2022/11/22 05:17:43;;;;;;;11.15;5.57;;;6.60;99.90;;;;;;4955050;29;20082;-45
2022/11/22 05:20:09;;;;;;;18.92;5.53;;;6.60;99.90;;;;;;4954953;28;20280;-45
2022/11/22 05:25:19;;;;;;;18.67;6.63;;;6.60;99.90;;;;;;4954504;28;20403;-42
2022/11/22 05:27:44;;;;;;;13.95;5.00;;;6.50;99.90;;;;;;4954241;29;20031;-43
2022/11/22 05:30:10;;;;;;;13.00;4.78;;;6.50;99.90;;;;;;4954366;29;20031;-46
2022/11/22 05:32:35;;;;;;;9.38;4.43;;;6.50;99.90;;;;;;4953732;28;20396;-45
2022/11/22 05:35:01;;;;;;;13.65;5.47;;;6.50;99.90;;;;;;4954092;28;20546;-47
2022/11/22 05:37:27;;;;;;;16.83;6.55;;;6.40;99.90;;;;;;4954487;29;20030;-46
2022/11/22 05:39:52;;;;;;;10.63;4.97;;;6.40;99.90;;;;;;4954483;28;20047;-43
2022/11/22 05:42:18;;;;;;;14.68;5.82;;;6.40;99.90;;;;;;4953562;28;20031;-47
2022/11/22 05:44:44;;;;;;;10.82;4.78;;;6.50;99.90;;;;;;4954057;28;20031;-41
2022/11/22 05:47:09;;;;;;;20.92;5.35;;;6.50;99.90;;;;;;4998620;23;20520;-46
2022/11/22 05:49:35;;;;;;;13.25;4.03;;;6.50;99.90;;;;;;4992062;28;20018;-46
2022/11/22 05:52:02;;;;;;;12.98;4.50;;;6.50;99.90;;;;;;4991996;28;20026;-46
2022/11/22 05:54:28;;;;;;;8.82;3.70;;;6.60;99.90;;;;;;4992847;28;20030;-46
2022/11/22 05:56:54;;;;;;;10.85;4.35;;;6.50;99.90;;;;;;4992811;28;20030;-45
2022/11/22 05:59:20;;;;;;;22.48;4.95;;;6.50;99.90;;;;;;4992801;28;20034;-43
2022/11/22 06:01:45;;;;;;;17.70;4.07;;;6.50;99.90;;;;;;4992359;28;20030;-47
2022/11/22 06:04:11;;;;;;;18.27;3.70;;;6.60;99.90;;;;;;4992158;28;20038;-46
2022/11/22 06:06:36;;;;;;;12.23;2.60;;;6.60;99.90;;;;;;4992443;28;20071;-48
2022/11/22 06:09:02;;;;;;;18.75;4.00;;;6.60;99.90;;;;;;4992827;28;20054;-42
2022/11/22 06:11:28;;;;;;;25.83;3.40;;;6.60;99.90;;;;;;4992641;28;20022;-47
2022/11/22 06:14:01;;;;;;;14.15;3.53;;;6.70;99.90;;;;;;4991774;28;20025;-49
2022/11/22 06:16:27;;;;;;;20.20;3.55;;;6.80;99.90;;;;;;4992268;28;20053;-46
2022/11/22 06:18:53;;;;;;;9.02;4.22;;;6.80;99.90;;;;;;4992410;28;20030;-45
2022/11/22 06:21:23;;;;;;;23.08;3.30;;;6.90;99.90;;;;;;4992885;28;20030;-44
2022/11/22 06:23:50;;;;;;;13.82;3.88;;;6.90;99.90;;;;;;4991820;28;20030;-45
2022/11/22 06:26:18;;;;;;;13.77;4.00;;;6.90;99.90;;;;;;4992497;28;20085;-44
2022/11/22 06:28:45;;;;;;;15.10;3.25;;;6.90;99.90;;;;;;4992499;28;20030;-45
2022/11/22 06:31:18;;;;;;;14.13;3.13;;;7.00;99.90;;;;;;4992269;28;20049;-50
2022/11/22 06:33:44;;;;;;;16.27;3.63;;;7.00;99.90;;;;;;4991585;28;20023;-46
2022/11/22 06:36:15;;;;;;;23.30;4.43;;;7.00;99.90;;;;;;4992154;28;20110;-44
2022/11/22 06:38:42;;;;;;;17.52;3.42;;;7.10;99.90;;;;;;4992155;28;20113;-49
2022/11/22 06:41:13;;;;;;;14.27;3.90;;;7.00;99.90;;;;;;4990524;28;20466;-46
2022/11/22 06:43:41;;;;;;;15.90;4.13;;;7.10;99.90;;;;;;4989646;28;20474;-49
2022/11/22 06:46:08;;;;;;;19.92;4.63;;;7.00;99.90;;;;;;4991416;28;20034;-45
2022/11/22 06:48:36;;;;;;;10.75;4.50;;;7.00;99.90;;;;;;4992140;28;20089;-45
2022/11/22 06:51:08;;;;;;;22.35;4.85;;;7.00;99.90;;;;;;4992039;28;20422;-46
2022/11/22 06:53:35;;;;;;;17.67;4.90;;;7.00;99.90;;;;;;4986609;28;20023;-49
2022/11/22 06:56:05;;;;;;;7.32;3.20;;;7.00;99.90;;;;;;5002377;28;20409;-45
2022/11/22 06:58:30;;;;;;;17.13;4.07;;;7.00;99.90;;;;;;4980305;28;20100;-44
2022/11/22 07:01:05;;;;;;;14.85;4.13;;;7.00;99.90;;;;;;4975110;28;20534;-46
2022/11/22 07:03:33;;;;;;;15.63;4.30;;;7.00;99.90;;;;;;4975846;28;20027;-47
2022/11/22 07:05:58;;;;;;;19.75;4.85;;;7.00;99.90;;;;;;5000184;28;20502;-48
2022/11/22 07:08:24;;;;;;;12.80;3.38;;;7.00;99.90;;;;;;4995925;28;20073;-44
2022/11/22 07:10:49;;;;;;;12.75;2.92;;;7.00;99.90;;;;;;4995793;28;20076;-49
2022/11/22 07:13:15;;;;;;;17.88;3.75;;;7.10;99.90;;;;;;4976463;28;20109;-44
2022/11/22 07:15:41;;;;;;;17.55;3.85;;;7.10;99.90;;;;;;4994852;28;20494;-57
2022/11/22 07:18:06;;;;;;;17.13;2.80;;;7.10;99.90;;;;;;4997179;28;20045;-46
2022/11/22 07:20:32;;;;;;;13.75;3.08;;;7.10;99.90;;;;;;4995864;28;20490;-50
2022/11/22 07:22:57;;;;;;;20.63;3.30;;;7.20;99.90;;;;;;4994293;28;20117;-46
2022/11/22 07:25:23;;;;;;;11.80;2.50;;;7.20;99.90;;;;;;4998525;28;20031;-49
2022/11/22 07:27:51;;;;;;;15.65;2.85;;;7.20;99.90;;;;;;5003727;28;20058;-43
2022/11/22 07:30:17;;;;;;;15.27;2.53;;;7.20;99.90;;;;;;5002623;28;20414;-46
2022/11/22 07:32:46;;;;;;;14.27;3.65;;;7.20;99.90;;;;;;5004634;28;20038;-45
2022/11/22 07:35:12;;;;;;;25.10;4.13;;;7.30;99.90;;;;;;5003038;28;20030;-48
2022/11/22 07:37:37;;;;;;;23.15;2.88;;;7.30;99.90;;;;;;5005649;28;20038;-45
2022/11/22 07:40:03;;;;;;;9.25;2.33;;;7.40;99.90;;;;;;5005686;28;20026;-46
2022/11/22 07:42:29;;;;;;;8.48;2.35;;;7.40;99.90;;;;;;5019600;28;20029;-47
2022/11/22 07:44:54;;;;;;;18.83;2.95;;;7.40;99.90;;;;;;5021273;28;20453;-45
2022/11/22 07:47:20;;;;;;;16.80;2.67;;;7.50;99.90;;;;;;5006093;28;20034;-50
2022/11/22 07:49:45;;;;;;;8.57;2.38;;;7.50;99.90;;;;;;5005300;28;20518;-49
2022/11/22 07:52:11;;;;;;;15.85;3.15;;;7.50;99.90;;;;;;5005614;28;20483;-43
2022/11/22 07:54:37;;;;;;;13.02;3.03;;;7.50;99.90;;;;;;5017019;28;20018;-41
2022/11/22 07:57:03;;;;;;;19.73;2.70;;;7.50;99.90;;;;;;5017888;28;20041;-46
2022/11/22 07:59:28;;;;;;;15.43;2.50;;;7.50;99.90;;;;;;5017410;28;20242;-41
2022/11/22 08:01:54;;;;;;;12.80;2.58;;;7.60;99.90;;;;;;5032263;28;20112;-45
2022/11/22 08:04:19;;;;;;;8.77;2.35;;;7.60;99.90;;;;;;5016397;28;20030;-45
2022/11/22 08:06:45;;;;;;;6.93;2.05;;;7.60;99.90;;;;;;5032862;28;20041;-46
2022/11/22 08:09:11;;;;;;;19.25;3.17;;;7.60;99.90;;;;;;5017677;28;20018;-44
2022/11/22 08:11:36;;;;;;;3.63;1.88;;;7.50;99.90;;;;;;5030973;28;20034;-49
2022/11/22 08:14:02;;;;;;;15.18;2.72;;;7.60;99.90;;;;;;5014187;28;20049;-43
2022/11/22 08:16:28;;;;;;;12.75;2.83;;;7.60;99.90;;;;;;5030945;28;20018;-49
2022/11/22 08:18:54;;;;;;;13.27;2.35;;;7.60;99.90;;;;;;5016734;28;20031;-44
2022/11/22 08:21:20;;;;;;;16.10;3.30;;;7.60;99.90;;;;;;5016431;28;20006;-47
2022/11/22 08:23:46;;;;;;;24.77;7.22;;;7.70;99.90;;;;;;5016234;28;20018;-48
2022/11/22 08:26:14;;;;;;;14.77;2.85;;;7.70;99.90;;;;;;5014570;28;20068;-43
2022/11/22 08:28:41;;;;;;;6.20;1.95;;;7.80;99.90;;;;;;5009451;28;20053;-42
2022/11/22 08:31:11;;;;;;;14.00;2.38;;;7.90;99.90;;;;;;5010858;28;20029;-45
2022/11/22 08:33:36;;;;;;;12.32;2.53;;;7.80;99.90;;;;;;5011020;28;20053;-46
2022/11/22 08:36:02;;;;;;;13.00;1.90;;;7.90;99.90;;;;;;5012652;28;20046;-41
2022/11/22 08:38:28;;;;;;;10.65;2.00;;;7.90;99.90;;;;;;5015717;28;20026;-43
2022/11/22 08:40:54;;;;;;;9.90;2.05;;;7.90;99.90;;;;;;5029553;28;20027;-49
2022/11/22 08:43:20;;;;;;;9.85;1.85;;;7.90;99.90;;;;;;5013641;28;20034;-43
2022/11/22 08:45:54;;;;;;;9.95;1.70;;;7.90;99.90;;;;;;5016118;28;20026;-47
2022/11/22 08:48:20;;;;;;;7.13;1.83;;;7.90;99.90;;;;;;5015612;28;20057;-42
2022/11/22 08:50:57;;;;;;;6.95;3.15;;;7.90;99.90;;;;;;5016439;28;20038;-44
2022/11/22 08:53:24;;;;;;;16.40;2.55;;;7.90;99.90;;;;;;5015198;28;20506;-42
2022/11/22 08:55:50;;;;;;;9.90;2.42;;;8.00;99.90;;;;;;5016789;28;20034;-47
2022/11/22 08:58:16;;;;;;;4.63;2.40;;;8.00;99.90;;;;;;5033330;28;20015;-48
2022/11/22 09:00:42;;;;;;;8.52;1.45;;;8.10;99.90;;;;;;5016203;28;20076;-45
2022/11/22 09:03:08;;;;;;;8.55;2.53;;;8.10;99.90;;;;;;5015086;28;20006;-43
2022/11/22 09:05:34;;;;;;;8.85;2.25;;;8.20;99.90;;;;;;5016195;28;20086;-46
2022/11/22 09:08:00;;;;;;;4.05;1.42;;;8.20;99.90;;;;;;5015972;28;20026;-43
2022/11/22 09:10:26;;;;;;;9.75;2.28;;;8.30;99.90;;;;;;5014508;28;20082;-45
2022/11/22 09:12:51;;;;;;;11.38;2.53;;;8.20;99.90;;;;;;5010963;28;20037;-46
2022/11/22 09:15:17;;;;;;;9.27;2.13;;;8.30;99.90;;;;;;5010794;28;20027;-43
2022/11/22 09:17:43;;;;;;;9.68;2.22;;;8.40;99.90;;;;;;5011633;28;20053;-47
2022/11/22 09:20:10;;;;;;;8.73;2.10;;;8.40;99.90;;;;;;5010735;28;20022;-50
2022/11/22 09:22:36;;;;;;;10.32;3.03;;;8.40;99.90;;;;;;5011269;28;20053;-44
2022/11/22 09:25:04;;;;;;;5.88;1.90;;;8.50;99.90;;;;;;5010586;28;20030;-45
2022/11/22 09:27:32;;;;;;;12.80;2.50;;;8.50;99.90;;;;;;5008751;28;20130;-45
2022/11/22 09:29:57;;;;;;;12.32;2.42;;;8.60;99.90;;;;;;5010569;28;20037;-43
2022/11/22 09:32:23;;;;;;;14.50;3.00;;;8.60;99.90;;;;;;5011046;28;20076;-44
2022/11/22 09:34:49;;;;;;;11.18;2.05;;;8.80;99.90;;;;;;5008891;28;20037;-47
2022/11/22 09:37:17;;;;;;;13.35;2.20;;;8.80;99.90;;;;;;5002880;28;20034;-44
2022/11/22 09:39:43;;;;;;;6.22;2.53;;;8.90;99.90;;;;;;5009045;28;20042;-43
2022/11/22 09:42:36;;;;;;;7.45;1.75;;;9.00;99.90;;;;;;5006167;28;20034;-49
2022/11/22 09:45:43;;;;;;;10.82;2.38;;;8.90;99.90;;;;;;4993939;28;20414;-50
2022/11/22 09:48:20;;;;;;;10.52;2.42;;;8.90;99.90;;;;;;4933015;29;20047;-42
2022/11/22 09:51:11;;;;;;;9.32;2.17;;;8.80;99.90;;;;;;4935240;28;20043;-42
2022/11/22 09:53:51;;;;;;;7.82;2.20;;;8.90;99.90;;;;;;4976169;28;20065;-45
2022/11/22 09:56:19;;;;;;;9.07;2.75;;;8.90;99.90;;;;;;4991718;28;20023;-44
2022/11/22 09:58:53;;;;;;;11.77;2.83;;;8.80;99.90;;;;;;4998518;28;20460;-45
2022/11/22 10:01:30;;;;;;;6.50;2.60;;;8.80;99.90;;;;;;4997102;28;20015;-49
2022/11/22 10:04:08;;;;;;;7.63;2.00;;;8.80;99.90;;;;;;4988627;28;20546;-43
2022/11/22 10:06:40;;;;;;;15.10;2.60;;;8.70;99.90;;;;;;4988787;28;20044;-48
2022/11/22 10:09:21;;;;;;;8.65;2.08;;;8.70;99.90;;;;;;4988929;28;20027;-45
2022/11/22 10:12:02;;;;;;;10.25;1.80;;;8.70;99.90;;;;;;4992200;28;20087;-51
2022/11/22 10:14:46;;;;;;;9.05;1.88;;;8.60;99.90;;;;;;4993726;28;20045;-44
2022/11/22 10:17:33;;;;;;;11.45;2.92;;;8.50;99.90;;;;;;4998911;28;20090;-50
2022/11/22 10:20:16;;;;;;;14.90;3.50;;;8.50;99.90;;;;;;5007674;28;20375;-42
2022/11/22 10:22:42;;;;;;;6.30;1.90;;;8.50;99.90;;;;;;5000567;28;20037;-51
2022/11/22 10:25:38;;;;;;;11.35;1.90;;;8.50;99.90;;;;;;5001150;28;20023;-51
2022/11/22 10:28:35;;;;;;;7.68;2.30;;;8.60;99.90;;;;;;4997098;28;20022;-51
2022/11/22 10:31:13;;;;;;;14.13;2.22;;;8.60;99.90;;;;;;4995843;28;20030;-49
2022/11/22 10:33:54;;;;;;;27.48;13.23;;;8.60;99.90;;;;;;4999604;28;20025;-47
2022/11/22 10:36:33;;;;;;;62.28;32.75;;;8.60;99.90;;;;;;5001537;28;20039;-48
2022/11/22 10:39:11;;;;;;;10.60;2.83;;;8.70;99.90;;;;;;5005525;28;20082;-51
2022/11/22 10:41:43;;;;;;;9.05;3.00;;;8.60;99.90;;;;;;4998541;28;20053;-49
2022/11/22 10:44:33;;;;;;;11.60;2.72;;;8.50;99.90;;;;;;4999925;28;20040;-49
2022/11/22 10:47:08;;;;;;;6.53;2.15;;;8.50;99.90;;;;;;4992822;28;20031;-44
2022/11/22 10:49:42;;;;;;;7.97;2.40;;;8.60;99.90;;;;;;4989240;28;20023;-53
2022/11/22 10:52:20;;;;;;;10.40;2.58;;;8.60;99.90;;;;;;4973167;28;20050;-47
2022/11/22 10:55:08;;;;;;;8.90;1.88;;;8.70;99.90;;;;;;4988444;28;20041;-49
2022/11/22 10:57:56;;;;;;;17.75;3.20;;;8.70;99.90;;;;;;4991018;28;20034;-49
2022/11/22 11:00:26;;;;;;;12.82;3.25;;;8.70;99.90;;;;;;5008020;28;20422;-51
2022/11/22 11:03:07;;;;;;;15.10;3.20;;;8.70;99.90;;;;;;5005049;28;20022;-47
2022/11/22 11:06:12;;;;;;;14.18;2.40;;;8.70;99.90;;;;;;5010060;28;20386;-45
2022/11/22 11:09:02;;;;;;;8.20;1.80;;;8.80;99.90;;;;;;5013254;28;20446;-47
2022/11/22 11:11:29;;;;;;;8.65;2.00;;;8.80;99.90;;;;;;5001498;28;20085;-45
2022/11/22 11:14:05;;;;;;;11.05;3.33;;;8.80;99.90;;;;;;4997347;28;20018;-56
2022/11/22 11:16:35;;;;;;;12.85;2.60;;;8.80;99.90;;;;;;5011139;28;20502;-52
2022/11/22 11:19:12;;;;;;;7.28;2.53;;;8.80;99.90;;;;;;4989705;28;20440;-49
2022/11/22 11:21:38;;;;;;;12.40;2.88;;;8.80;99.90;;;;;;5005309;28;20023;-45
2022/11/22 11:24:13;;;;;;;12.15;2.30;;;8.90;99.90;;;;;;4990866;28;20139;-47
2022/11/22 11:26:42;;;;;;;10.77;2.05;;;8.80;99.90;;;;;;4989256;28;20027;-48
2022/11/22 11:29:17;;;;;;;10.18;2.67;;;8.80;99.90;;;;;;4990524;28;20042;-44
2022/11/22 11:32:10;;;;;;;13.38;2.50;;;8.90;99.90;;;;;;4988069;28;20023;-47
2022/11/22 11:34:39;;;;;;;6.18;2.53;;;8.90;99.90;;;;;;5003663;28;20027;-46
2022/11/22 11:37:11;;;;;;;13.05;1.90;;;9.00;99.90;;;;;;4987692;28;20050;-49
2022/11/22 11:39:36;;;;;;;10.32;2.40;;;9.00;99.90;;;;;;4987090;28;20022;-44
2022/11/22 11:42:28;;;;;;;12.25;2.60;;;8.90;99.90;;;;;;4986785;28;20037;-45
2022/11/22 11:45:14;;;;;;;8.27;2.90;;;8.90;99.90;;;;;;4988365;28;20593;-43
2022/11/22 11:47:39;;;;;;;;;;;8.90;99.90;;;;;;5004854;23;20053;-48
2022/11/22 11:50:22;;;;;;;12.20;2.40;;;8.80;99.90;;;;;;4975647;28;19906;-44
2022/11/22 11:52:52;;;;;;;11.50;2.10;;;8.80;99.90;;;;;;4975148;28;20035;-45
2022/11/22 11:55:18;;;;;;;14.55;3.47;;;8.80;99.90;;;;;;4975388;28;20030;-43
2022/11/22 11:57:44;;;;;;;10.63;1.70;;;8.90;99.90;;;;;;4975349;28;20025;-47
2022/11/22 12:00:20;;;;;;;11.30;2.95;;;8.90;99.90;;;;;;4975498;28;20027;-51
2022/11/22 12:02:46;;;;;;;19.02;8.02;;;9.00;99.90;;;;;;4974595;28;20019;-51
2022/11/22 12:05:12;;;;;;;16.77;6.07;;;9.00;99.90;;;;;;4975036;28;20023;-50
2022/11/22 12:07:43;;;;;;;9.68;2.10;;;9.10;99.90;;;;;;4974848;28;20494;-49
2022/11/22 12:10:28;;;;;;;11.70;2.10;;;9.10;99.90;;;;;;4975549;28;21482;-47
2022/11/22 12:13:12;;;;;;;4.13;1.50;;;9.20;99.90;;;;;;4974962;28;20431;-46
2022/11/22 12:15:54;;;;;;;14.00;1.73;;;9.20;99.90;;;;;;4975223;28;20372;-46
2022/11/22 12:18:32;;;;;;;11.80;2.78;;;9.30;99.90;;;;;;4974637;28;20098;-46
2022/11/22 12:21:19;;;;;;;5.95;1.45;;;9.30;99.90;;;;;;4974826;28;20043;-47
2022/11/22 12:23:59;;;;;;;10.43;1.80;;;9.30;99.90;;;;;;4965935;28;20065;-45
2022/11/22 12:26:26;;;;;;;12.40;2.10;;;9.40;99.90;;;;;;4974745;28;20480;-45
2022/11/22 12:28:53;;;;;;;10.85;2.20;;;9.40;99.90;;;;;;4974648;28;20133;-45
2022/11/22 12:31:35;;;;;;;6.68;1.60;;;9.40;99.90;;;;;;4974821;28;20034;-49
2022/11/22 12:34:12;;;;;;;7.47;1.35;;;9.30;99.90;;;;;;4988825;28;20023;-45
2022/11/22 12:36:51;;;;;;;7.28;1.60;;;9.40;99.90;;;;;;4974309;28;20030;-46
2022/11/22 12:39:22;;;;;;;10.13;2.00;;;9.30;99.90;;;;;;4971312;28;20031;-48
2022/11/22 12:41:51;;;;;;;5.80;1.60;;;9.20;99.90;;;;;;4973763;28;20042;-45
2022/11/22 12:44:19;;;;;;;7.22;1.90;;;9.20;99.90;;;;;;4989157;28;20038;-49
2022/11/22 12:47:14;;;;;;;5.57;1.67;;;9.20;99.90;;;;;;4974152;28;20423;-49
2022/11/22 12:49:48;;;;;;;9.48;2.08;;;9.20;99.90;;;;;;4966536;28;20380;-45
2022/11/22 12:52:44;;;;;;;8.30;2.13;;;9.10;99.90;;;;;;4964072;28;20031;-50
2022/11/22 12:55:25;;;;;;;10.88;2.45;;;9.20;99.90;;;;;;4954788;28;20047;-47
2022/11/22 12:57:57;;;;;;;9.25;1.80;;;9.20;99.90;;;;;;4954535;28;20046;-50
2022/11/22 13:00:25;;;;;;;11.13;2.42;;;9.20;99.90;;;;;;4954807;28;20027;-50
2022/11/22 13:03:03;;;;;;;12.70;1.67;;;9.30;99.90;;;;;;4955021;28;20103;-52
2022/11/22 13:05:56;;;;;;;5.78;1.73;;;9.30;99.90;;;;;;4955273;28;20074;-49
2022/11/22 13:08:41;;;;;;;6.95;1.70;;;9.30;99.90;;;;;;4954975;28;20035;-51
2022/11/22 13:11:29;;;;;;;4.65;1.60;;;9.30;99.90;;;;;;4955425;28;20114;-45
2022/11/22 13:14:10;;;;;;;5.63;1.85;;;9.20;99.90;;;;;;4954520;28;20019;-50
2022/11/22 13:16:36;;;;;;;11.25;2.05;;;9.10;99.90;;;;;;4954245;28;20042;-51